Aeroporto :
LOGIN :

Iscrizione | Disclaimer

   EN    FR    IT 

 










Sommario :    VFR   VFR Marginale   IFR   IFR Intensivo   IFR Molto Intensivo
Visibilità : 
Base nubi : 
>= 8 km
>= 3000ft
5 / 8 km
1000 / 3000 ft
1500m / 5 km
500 / 1000 ft
800 / 1500m
200 / 500 ft
< 800m
< 200 ft
Simboli :   Temporali  Nebbia  Neve Forte  Precipitazioni Forti  Vento > 20 kt
SIGMETs :   Varie  Temporali  Ghiacco  Turbolenza  Onda orograficha  Ceneri Vulcaniche






- Altitudine del aeroporto : 538 ft
- Codice IATA : TNF


LFPN - Toussus Le Noble

ULTIMO METAR :
  • 240830Z AUTO 13004KT 0250 R25R/0275N FG VV/// 04/04 Q1023 BECMG CAVOK

METARs OBSOLETI :
  • 240800Z AUTO 12003KT 0200 R25R/0200N FG VV/// 03/03 Q1023 BECMG CAVOK
  • 240730Z AUTO 13003KT 0250 R25R/0250N FG VV/// 03/03 Q1023 BECMG CAVOK
  • 240700Z AUTO 11002KT 0650 0500 R25R/0800U FG VV/// 03/03 Q1023 BECMG 4500 BR NSC
  • 240630Z AUTO 12003KT 0600 0500 R25R/0650N FG VV/// 02/02 Q1023 BECMG 4500 BR NSC

TAF TAF LFPN
Valido dal 24 a 09 ore il 24 a 18 ore UTC


240800Z 2409/2418 13005KT 0200 FG VV///
BECMG 2409/2413 CAVOK
ATIS : +33 1 39 56 54 70



MetMap, La meteo Aeronautica in un colpo d'occhio ! - Copyright ORBIFLY Dicembre 2007 - Disclaimer

ORBIFLY MET'MAP TEAM :

Programmazione e sviluppo : Alexandra Zaïnal
Concezione : Baudouin d'Aumeries
Aiuto per la programmazione : Marc-Olivier Méhu
Supporto tecnico e logistico : Manuel Goepfert
Aiuto per la traduzione : Arnaldo La Scala

Contatto : metmap@orbifly.com




FONTI E CREDITI :

   NOAA